Time;durP1;ratioP1;P1;durP2;ratioP2;P2;SDS_P1;SDS_P2;PMS_P1;PMS_P2;Temp;Humidity;BMP_temperature;BMP_pressure;BME280_temperature;BME280_humidity;BME280_pressure;Samples;Min_cycle;Max_cycle;Signal;HPM_P1;HPM_P2
2023/03/13 00:01:17;;;;;;;;;;;;;;;-144.70;100.00;64190.91;4786935;30;19924;-55
2023/03/13 00:03:43;;;;;;;;;;;;;;;-144.70;100.00;64190.91;4786906;30;20361;-55
2023/03/13 00:06:09;;;;;;;;;;;;;;;-144.70;100.00;64190.91;4786894;29;19925;-55
2023/03/13 00:08:35;;;;;;;;;;;;;;;-144.70;100.00;64190.91;4786757;30;19925;-54
2023/03/13 00:11:05;;;;;;;;;;;;;;;-144.70;100.00;64190.91;4788635;29;19966;-54
2023/03/13 00:13:31;;;;;;;;;;;;;;;-144.70;100.00;64190.91;4790073;30;19917;-54
2023/03/13 00:16:04;;;;;;;;;;;;;;;-144.70;100.00;64190.91;4790272;30;19924;-54
2023/03/13 00:18:30;;;;;;;;;;;;;;;-144.70;100.00;64190.91;4790129;30;19925;-54
2023/03/13 00:21:08;;;;;;;;;;;;;;;-144.70;100.00;64190.91;4790390;30;19974;-55
2023/03/13 00:23:35;;;;;;;;;;;;;;;-144.70;100.00;64190.91;4790008;30;19943;-53
2023/03/13 00:26:03;;;;;;;;;;;;;;;-144.70;100.00;64190.91;4790036;30;19921;-55
2023/03/13 00:28:29;;;;;;;;;;;;;;;-144.70;100.00;64190.91;4789856;30;20288;-55
2023/03/13 00:31:02;;;;;;;;;;;;;;;-144.70;100.00;64190.91;4790109;30;19972;-55
2023/03/13 00:33:28;;;;;;;;;;;;;;;-144.70;100.00;64190.91;4790368;30;19994;-55
2023/03/13 00:35:58;;;;;;;;;;;;;;;-144.70;100.00;64190.91;4789935;30;20265;-55
2023/03/13 00:38:23;;;;;;;;;;;;;;;-144.70;100.00;64190.91;4790157;30;20177;-55
2023/03/13 00:40:57;;;;;;;;;;;;;;;-144.70;100.00;64190.91;4789672;30;20372;-54
2023/03/13 00:43:23;;;;;;;;;;;;;;;-144.70;100.00;64190.91;4789880;30;19918;-55
2023/03/13 00:45:49;;;;;;;;;;;;;;;-144.70;100.00;64190.91;4789390;30;19928;-55
2023/03/13 00:48:15;;;;;;;;;;;;;;;-144.70;100.00;64190.91;4789629;30;19925;-54
2023/03/13 00:50:41;;;;;;;;;;;;;;;-144.70;100.00;64190.91;4789564;30;19914;-55
2023/03/13 00:53:06;;;;;;;;;;;;;;;-144.70;100.00;64190.91;4789581;30;19921;-55
2023/03/13 00:55:32;;;;;;;;;;;;;;;-144.70;100.00;64190.91;4789507;30;19924;-55
2023/03/13 00:57:58;;;;;;;;;;;;;;;-144.70;100.00;64190.91;4789368;30;19980;-55
2023/03/13 01:00:24;;;;;;;;;;;;;;;-144.70;100.00;64190.91;4789615;30;19924;-56
2023/03/13 01:02:50;;;;;;;;;;;;;;;-144.70;100.00;64190.91;4789461;30;19925;-54
2023/03/13 01:05:16;;;;;;;;;;;;;;;-144.70;100.00;64190.91;4789252;29;20410;-55
2023/03/13 01:07:41;;;;;;;;;;;;;;;-144.70;100.00;64190.91;4789186;30;19917;-54
2023/03/13 01:10:08;;;;;;;;;;;;;;;-144.70;100.00;64190.91;4789323;30;19964;-54
2023/03/13 01:12:33;;;;;;;;;;;;;;;-144.70;100.00;64190.91;4789341;30;20429;-54
2023/03/13 01:14:59;;;;;;;;;;;;;;;-144.70;100.00;64190.91;4789078;30;20330;-54
2023/03/13 01:17:25;;;;;;;;;;;;;;;-144.70;100.00;64190.91;4788893;30;19974;-55
2023/03/13 01:19:54;;;;;;;;;;;;;;;-144.70;100.00;64190.91;4789125;30;19917;-54
2023/03/13 01:22:20;;;;;;;;;;;;;;;-144.70;100.00;64190.91;4784364;29;20013;-55
2023/03/13 01:24:48;;;;;;;;;;;;;;;-144.70;100.00;64190.91;4764414;30;19957;-54
2023/03/13 01:27:14;;;;;;;;;;;;;;;-144.70;100.00;64190.91;4769956;30;20004;-54
2023/03/13 01:29:40;;;;;;;;;;;;;;;-144.70;100.00;64190.91;4771041;30;20016;-54
2023/03/13 01:32:06;;;;;;;;;;;;;;;-144.70;100.00;64190.91;4771005;30;19983;-54
2023/03/13 01:34:32;;;;;;;;;;;;;;;-144.70;100.00;64190.91;4783738;30;19925;-55
2023/03/13 01:36:58;;;;;;;;;;;;;;;-144.70;100.00;64190.91;4788830;30;19931;-54
2023/03/13 01:39:23;;;;;;;;;;;;;;;-144.70;100.00;64190.91;4787209;30;19952;-54
2023/03/13 01:41:49;;;;;;;;;;;;;;;-144.70;100.00;64190.91;4770769;30;20369;-53
2023/03/13 01:44:23;;;;;;;;;;;;;;;-144.70;100.00;64190.91;4770771;30;20370;-53
2023/03/13 01:46:49;;;;;;;;;;;;;;;-144.70;100.00;64190.91;4784539;30;19984;-54
2023/03/13 01:49:23;;;;;;;;;;;;;;;-144.70;100.00;64190.91;4788626;30;19957;-54
2023/03/13 01:51:52;;;;;;;;;;;;;;;-144.70;100.00;64190.91;4759293;30;20302;-53
2023/03/13 01:54:18;;;;;;;;;;;;;;;-144.70;100.00;64190.91;4752866;30;19957;-54
2023/03/13 01:56:55;;;;;;;;;;;;;;;-144.70;100.00;64190.91;4756218;30;19949;-52
2023/03/13 01:59:23;;;;;;;;;;;;;;;-144.70;100.00;64190.91;4754463;30;20298;-53
2023/03/13 02:01:50;;;;;;;;;;;;;;;-144.70;100.00;64190.91;4770263;30;19940;-53
2023/03/13 02:04:18;;;;;;;;;;;;;;;-144.70;100.00;64190.91;4770467;30;20305;-52
2023/03/13 02:06:47;;;;;;;;;;;;;;;-144.70;100.00;64190.91;4770230;30;19936;-53
2023/03/13 02:09:18;;;;;;;;;;;;;;;-144.70;100.00;64190.91;4772483;30;19930;-50
2023/03/13 02:12:02;;;;;;;;;;;;;;;-144.70;100.00;64190.91;4770233;30;19968;-55
2023/03/13 02:14:29;;;;;;;;;;;;;;;-144.70;100.00;64190.91;4762771;30;19917;-51
2023/03/13 02:16:55;;;;;;;;;;;;;;;-144.70;100.00;64190.91;4769909;30;19975;-54
2023/03/13 02:19:35;;;;;;;;;;;;;;;-144.70;100.00;64190.91;4770270;30;19917;-54
2023/03/13 02:22:19;;;;;;;;;;;;;;;-144.70;100.00;64190.91;4752410;30;19918;-55
2023/03/13 02:25:00;;;;;;;;;;;;;;;-144.70;100.00;64190.91;4736585;30;20328;-55
2023/03/13 02:27:26;;;;;;;;;;;;;;;-144.70;100.00;64190.91;4752190;30;19918;-56
2023/03/13 02:29:52;;;;;;;;;;;;;;;-144.70;100.00;64190.91;4752323;30;19925;-53
2023/03/13 02:32:18;;;;;;;;;;;;;;;-144.70;100.00;64190.91;4767357;30;20526;-53
2023/03/13 02:34:47;;;;;;;;;;;;;;;-144.70;100.00;64190.91;4769849;30;19917;-55
2023/03/13 02:37:14;;;;;;;;;;;;;;;-144.70;100.00;64190.91;4769654;30;19968;-55
2023/03/13 02:39:45;;;;;;;;;;;;;;;-144.70;100.00;64190.91;4770244;30;19924;-55
2023/03/13 02:42:11;;;;;;;;;;;;;;;-144.70;100.00;64190.91;4769702;30;19918;-54
2023/03/13 02:44:41;;;;;;;;;;;;;;;-144.70;100.00;64190.91;4769827;30;20374;-54
2023/03/13 02:47:08;;;;;;;;;;;;;;;-144.70;100.00;64190.91;4753384;30;19922;-52
2023/03/13 02:49:34;;;;;;;;;;;;;;;-144.70;100.00;64190.91;4769727;30;20316;-54
2023/03/13 02:52:10;;;;;;;;;;;;;;;-144.70;100.00;64190.91;4774470;30;19921;-55
2023/03/13 02:54:38;;;;;;;;;;;;;;;-144.70;100.00;64190.91;4787690;30;20271;-56
2023/03/13 02:57:04;;;;;;;;;;;;;;;-144.70;100.00;64190.91;4787298;30;19929;-55
2023/03/13 02:59:30;;;;;;;;;;;;;;;-144.70;100.00;64190.91;4776181;30;20078;-55
2023/03/13 03:01:56;;;;;;;;;;;;;;;-144.70;100.00;64190.91;4769780;30;20388;-53
2023/03/13 03:04:23;;;;;;;;;;;;;;;-144.70;100.00;64190.91;4769389;30;19921;-55
2023/03/13 03:06:50;;;;;;;;;;;;;;;-144.70;100.00;64190.91;4769340;30;19918;-55
2023/03/13 03:09:16;;;;;;;;;;;;;;;-144.70;100.00;64190.91;4769462;30;19940;-56
2023/03/13 03:11:42;;;;;;;;;;;;;;;-144.70;100.00;64190.91;4769683;30;19924;-53
2023/03/13 03:14:08;;;;;;;;;;;;;;;-144.70;100.00;64190.91;4769512;30;19918;-56
2023/03/13 03:16:34;;;;;;;;;;;;;;;-144.70;100.00;64190.91;4769224;30;19917;-55
2023/03/13 03:19:00;;;;;;;;;;;;;;;-144.70;100.00;64190.91;4769311;30;19975;-54
2023/03/13 03:21:26;;;;;;;;;;;;;;;-144.70;100.00;64190.91;4781906;30;19924;-55
2023/03/13 03:23:52;;;;;;;;;;;;;;;-144.70;100.00;64190.91;4769507;30;19918;-54
2023/03/13 03:26:18;;;;;;;;;;;;;;;-144.70;100.00;64190.91;4786329;30;19925;-55
2023/03/13 03:28:44;;;;;;;;;;;;;;;-144.70;100.00;64190.91;4787197;30;19917;-54
2023/03/13 03:31:11;;;;;;;;;;;;;;;-144.70;100.00;64190.91;4787164;30;19918;-54
2023/03/13 03:33:38;;;;;;;;;;;;;;;-144.70;100.00;64190.91;4787351;30;19918;-55
2023/03/13 03:36:06;;;;;;;;;;;;;;;-144.70;100.00;64190.91;4787337;30;20262;-54
2023/03/13 03:38:32;;;;;;;;;;;;;;;-144.70;100.00;64190.91;4784589;30;19918;-54
2023/03/13 03:40:58;;;;;;;;;;;;;;;-144.70;100.00;64190.91;4782508;30;19936;-54
2023/03/13 03:43:24;;;;;;;;;;;;;;;-144.70;100.00;64190.91;4770124;30;20009;-55
2023/03/13 03:45:50;;;;;;;;;;;;;;;-144.70;100.00;64190.91;4752732;30;19926;-55
2023/03/13 03:48:15;;;;;;;;;;;;;;;-144.70;100.00;64190.91;4759744;30;19929;-55
2023/03/13 03:50:41;;;;;;;;;;;;;;;-144.70;100.00;64190.91;4759851;30;19922;-55
2023/03/13 03:53:08;;;;;;;;;;;;;;;-144.70;100.00;64190.91;4790783;30;19918;-54
2023/03/13 03:55:34;;;;;;;;;;;;;;;-144.70;100.00;64190.91;4781470;30;20345;-55
2023/03/13 03:58:00;;;;;;;;;;;;;;;-144.70;100.00;64190.91;4779005;30;19921;-55
2023/03/13 04:00:26;;;;;;;;;;;;;;;-144.70;100.00;64190.91;4790387;30;19987;-54
2023/03/13 04:02:52;;;;;;;;;;;;;;;-144.70;100.00;64190.91;4777791;29;20362;-54
2023/03/13 04:05:18;;;;;;;;;;;;;;;-144.70;100.00;64190.91;4772143;30;19951;-55
2023/03/13 04:07:44;;;;;;;;;;;;;;;-144.70;100.00;64190.91;4772301;30;19921;-54
2023/03/13 04:10:10;;;;;;;;;;;;;;;-144.70;100.00;64190.91;4772290;30;19918;-55
2023/03/13 04:12:36;;;;;;;;;;;;;;;-144.70;100.00;64190.91;4772353;30;19922;-55
2023/03/13 04:15:02;;;;;;;;;;;;;;;-144.70;100.00;64190.91;4772489;30;20284;-55
2023/03/13 04:17:28;;;;;;;;;;;;;;;-144.70;100.00;64190.91;4772276;30;20425;-55
2023/03/13 04:19:54;;;;;;;;;;;;;;;-144.70;100.00;64190.91;4772292;30;20008;-55
2023/03/13 04:22:20;;;;;;;;;;;;;;;-144.70;100.00;64190.91;4772124;30;20015;-55
2023/03/13 04:24:46;;;;;;;;;;;;;;;-144.70;100.00;64190.91;4772278;30;20330;-55
2023/03/13 04:27:12;;;;;;;;;;;;;;;-144.70;100.00;64190.91;4771803;30;19975;-55
2023/03/13 04:29:38;;;;;;;;;;;;;;;-144.70;100.00;64190.91;4771976;30;20341;-55
2023/03/13 04:32:04;;;;;;;;;;;;;;;-144.70;100.00;64190.91;4772006;30;19926;-55
2023/03/13 04:34:30;;;;;;;;;;;;;;;-144.70;100.00;64190.91;4772063;30;19979;-56
2023/03/13 04:36:56;;;;;;;;;;;;;;;-144.70;100.00;64190.91;4771571;30;19918;-56
2023/03/13 04:39:25;;;;;;;;;;;;;;;-144.70;100.00;64190.91;4772169;30;19918;-56
2023/03/13 04:41:52;;;;;;;;;;;;;;;-144.70;100.00;64190.91;4772130;30;19929;-55
2023/03/13 04:44:18;;;;;;;;;;;;;;;-144.70;100.00;64190.91;4778766;30;20339;-55
2023/03/13 04:46:43;;;;;;;;;;;;;;;-144.70;100.00;64190.91;4785419;29;20377;-55
2023/03/13 04:49:09;;;;;;;;;;;;;;;-144.70;100.00;64190.91;4771749;30;20005;-56
2023/03/13 04:51:35;;;;;;;;;;;;;;;-144.70;100.00;64190.91;4771611;30;19922;-56
2023/03/13 04:54:01;;;;;;;;;;;;;;;-144.70;100.00;64190.91;4770532;30;19917;-56
2023/03/13 04:56:27;;;;;;;;;;;;;;;-144.70;100.00;64190.91;4777822;29;19917;-55
2023/03/13 04:58:53;;;;;;;;;;;;;;;-144.70;100.00;64190.91;4767879;30;19921;-56
2023/03/13 05:01:19;;;;;;;;;;;;;;;-144.70;100.00;64190.91;4753660;30;19918;-54
2023/03/13 05:03:45;;;;;;;;;;;;;;;-144.70;100.00;64190.91;4773132;30;19970;-56
2023/03/13 05:06:11;;;;;;;;;;;;;;;-144.70;100.00;64190.91;4771354;30;19952;-56
2023/03/13 05:08:37;;;;;;;;;;;;;;;-144.70;100.00;64190.91;4771261;30;20377;-55
2023/03/13 05:11:04;;;;;;;;;;;;;;;-144.70;100.00;64190.91;4771415;30;19925;-56
2023/03/13 05:13:29;;;;;;;;;;;;;;;-144.70;100.00;64190.91;4772204;30;20402;-55
2023/03/13 05:15:55;;;;;;;;;;;;;;;-144.70;100.00;64190.91;4771300;30;20012;-56
2023/03/13 05:18:21;;;;;;;;;;;;;;;-144.70;100.00;64190.91;4771186;30;19921;-55
2023/03/13 05:20:47;;;;;;;;;;;;;;;-144.70;100.00;64190.91;4770914;30;19957;-56
2023/03/13 05:23:13;;;;;;;;;;;;;;;-144.70;100.00;64190.91;4771058;30;20278;-56
2023/03/13 05:25:39;;;;;;;;;;;;;;;-144.70;100.00;64190.91;4770885;30;20045;-56
2023/03/13 05:28:05;;;;;;;;;;;;;;;-144.70;100.00;64190.91;4771069;30;19944;-56
2023/03/13 05:30:31;;;;;;;;;;;;;;;-144.70;100.00;64190.91;4770949;30;20366;-56
2023/03/13 05:32:57;;;;;;;;;;;;;;;-144.70;100.00;64190.91;4770874;30;19970;-56
2023/03/13 05:35:23;;;;;;;;;;;;;;;-144.70;100.00;64190.91;4770706;30;19935;-56
2023/03/13 05:37:48;;;;;;;;;;;;;;;-144.70;100.00;64190.91;4770657;30;19921;-56
2023/03/13 05:40:14;;;;;;;;;;;;;;;-144.70;100.00;64190.91;4770905;30;20008;-56
2023/03/13 05:42:40;;;;;;;;;;;;;;;-144.70;100.00;64190.91;4770861;30;19917;-55
2023/03/13 05:45:08;;;;;;;;;;;;;;;-144.70;100.00;64190.91;4770275;30;19921;-55
2023/03/13 05:47:35;;;;;;;;;;;;;;;-144.70;100.00;64190.91;4770852;30;19917;-56
2023/03/13 05:50:01;;;;;;;;;;;;;;;-144.70;100.00;64190.91;4769163;30;20428;-55
2023/03/13 05:52:27;;;;;;;;;;;;;;;-144.70;100.00;64190.91;4752535;30;19918;-56
2023/03/13 05:54:53;;;;;;;;;;;;;;;-144.70;100.00;64190.91;4757244;30;20270;-56
2023/03/13 05:57:19;;;;;;;;;;;;;;;-144.70;100.00;64190.91;4770215;30;19921;-55
2023/03/13 05:59:44;;;;;;;;;;;;;;;-144.70;100.00;64190.91;4788052;30;19924;-56
2023/03/13 06:02:10;;;;;;;;;;;;;;;-144.70;100.00;64190.91;4788050;29;19953;-56
2023/03/13 06:04:36;;;;;;;;;;;;;;;-144.70;100.00;64190.91;4788318;30;19924;-56
2023/03/13 06:07:02;;;;;;;;;;;;;;;-144.70;100.00;64190.91;4787969;30;19928;-56
2023/03/13 06:09:28;;;;;;;;;;;;;;;-144.70;100.00;64190.91;4756184;29;19975;-56
2023/03/13 06:11:54;;;;;;;;;;;;;;;-144.70;100.00;64190.91;4764836;30;19928;-55
2023/03/13 06:14:20;;;;;;;;;;;;;;;-144.70;100.00;64190.91;4773438;30;19918;-56
2023/03/13 06:16:46;;;;;;;;;;;;;;;-144.70;100.00;64190.91;4772690;30;20350;-55
2023/03/13 06:19:11;;;;;;;;;;;;;;;-144.70;100.00;64190.91;4770083;30;20372;-56
2023/03/13 06:21:38;;;;;;;;;;;;;;;-144.70;100.00;64190.91;4769984;30;20013;-56
2023/03/13 06:24:04;;;;;;;;;;;;;;;-144.70;100.00;64190.91;4758976;30;19954;-56
2023/03/13 06:26:29;;;;;;;;;;;;;;;-144.70;100.00;64190.91;4752044;30;19965;-56
2023/03/13 06:28:55;;;;;;;;;;;;;;;-144.70;100.00;64190.91;4766129;30;20389;-55
2023/03/13 06:31:21;;;;;;;;;;;;;;;-144.70;100.00;64190.91;4769939;30;19918;-56
2023/03/13 06:33:47;;;;;;;;;;;;;;;-144.70;100.00;64190.91;4769947;30;19922;-55
2023/03/13 06:36:13;;;;;;;;;;;;;;;-144.70;100.00;64190.91;4769642;30;19917;-56
2023/03/13 06:38:39;;;;;;;;;;;;;;;-144.70;100.00;64190.91;4769713;30;19944;-54
2023/03/13 06:41:06;;;;;;;;;;;;;;;-144.70;100.00;64190.91;4769677;30;19992;-55
2023/03/13 06:43:32;;;;;;;;;;;;;;;-144.70;100.00;64190.91;4769779;30;19924;-55
2023/03/13 06:46:02;;;;;;;;;;;;;;;-144.70;100.00;64190.91;4771117;30;19933;-55
2023/03/13 06:48:28;;;;;;;;;;;;;;;-144.70;100.00;64190.91;4769730;30;20006;-55
2023/03/13 06:50:55;;;;;;;;;;;;;;;-144.70;100.00;64190.91;4769659;30;20079;-55
2023/03/13 06:53:21;;;;;;;;;;;;;;;-144.70;100.00;64190.91;4769544;30;20330;-55
2023/03/13 06:55:50;;;;;;;;;;;;;;;-144.70;100.00;64190.91;4769393;30;19922;-55
2023/03/13 06:58:17;;;;;;;;;;;;;;;-144.70;100.00;64190.91;4769910;30;19949;-55
2023/03/13 07:00:43;;;;;;;;;;;;;;;-144.70;100.00;64190.91;4770594;30;19965;-54
2023/03/13 07:03:09;;;;;;;;;;;;;;;-144.70;100.00;64190.91;4769306;30;19922;-55
2023/03/13 07:05:36;;;;;;;;;;;;;;;-144.70;100.00;64190.91;4769100;30;19913;-55
2023/03/13 07:08:02;;;;;;;;;;;;;;;-144.70;100.00;64190.91;4769326;30;19918;-55
2023/03/13 07:10:28;;;;;;;;;;;;;;;-144.70;100.00;64190.91;4769610;30;19921;-54
2023/03/13 07:12:54;;;;;;;;;;;;;;;-144.70;100.00;64190.91;4769395;30;19929;-55
2023/03/13 07:15:20;;;;;;;;;;;;;;;-144.70;100.00;64190.91;4769063;30;19921;-56
2023/03/13 07:17:45;;;;;;;;;;;;;;;-144.70;100.00;64190.91;4769321;30;20004;-56
2023/03/13 07:20:11;;;;;;;;;;;;;;;-144.70;100.00;64190.91;4768282;30;20380;-56
2023/03/13 07:22:37;;;;;;;;;;;;;;;-144.70;100.00;64190.91;4769136;30;20377;-55
2023/03/13 07:25:04;;;;;;;;;;;;;;;-144.70;100.00;64190.91;4769012;30;19918;-56
2023/03/13 07:27:29;;;;;;;;;;;;;;;-144.70;100.00;64190.91;4769230;30;19921;-56
2023/03/13 07:29:55;;;;;;;;;;;;;;;-144.70;100.00;64190.91;4769036;30;19918;-56
2023/03/13 07:32:21;;;;;;;;;;;;;;;-144.70;100.00;64190.91;4769288;30;19918;-55
2023/03/13 07:34:47;;;;;;;;;;;;;;;-144.70;100.00;64190.91;4769007;30;19925;-56
2023/03/13 07:37:14;;;;;;;;;;;;;;;-144.70;100.00;64190.91;4768713;30;19960;-56
2023/03/13 07:39:40;;;;;;;;;;;;;;;-144.70;100.00;64190.91;4769166;30;20385;-56
2023/03/13 07:42:06;;;;;;;;;;;;;;;-144.70;100.00;64190.91;4769034;30;19918;-56
2023/03/13 07:44:32;;;;;;;;;;;;;;;-144.70;100.00;64190.91;4768883;30;19918;-55
2023/03/13 07:47:01;;;;;;;;;;;;;;;-144.70;100.00;64190.91;4768590;30;19978;-56
2023/03/13 07:49:26;;;;;;;;;;;;;;;-144.70;100.00;64190.91;4769049;30;19918;-55
2023/03/13 07:51:52;;;;;;;;;;;;;;;-144.70;100.00;64190.91;4768926;30;19918;-55
2023/03/13 07:54:18;;;;;;;;;;;;;;;-144.70;100.00;64190.91;4752916;30;19956;-56
2023/03/13 07:56:44;;;;;;;;;;;;;;;-144.70;100.00;64190.91;4768635;30;19925;-56
2023/03/13 07:59:10;;;;;;;;;;;;;;;-144.70;100.00;64190.91;4768861;30;19924;-55
2023/03/13 08:01:36;;;;;;;;;;;;;;;-144.70;100.00;64190.91;4768679;30;20365;-55
2023/03/13 08:04:02;;;;;;;;;;;;;;;-144.70;100.00;64190.91;4775992;30;20304;-56
2023/03/13 08:06:36;;;;;;;;;;;;;;;-144.70;100.00;64190.91;4758696;30;19921;-55
2023/03/13 08:09:02;;;;;;;;;;;;;;;-144.70;100.00;64190.91;4761011;30;19921;-54
2023/03/13 08:11:28;;;;;;;;;;;;;;;-144.70;100.00;64190.91;4765882;30;20444;-55
2023/03/13 08:13:54;;;;;;;;;;;;;;;-144.70;100.00;64190.91;4768749;30;19931;-54
2023/03/13 08:16:22;;;;;;;;;;;;;;;-144.70;100.00;64190.91;4777839;30;19937;-57
2023/03/13 08:18:48;;;;;;;;;;;;;;;-144.70;100.00;64190.91;4786832;30;19923;-52
2023/03/13 08:21:15;;;;;;;;;;;;;;;-144.70;100.00;64190.91;4786665;30;20015;-53
2023/03/13 08:23:41;;;;;;;;;;;;;;;-144.70;100.00;64190.91;4786771;30;19945;-53
2023/03/13 08:26:08;;;;;;;;;;;;;;;-144.70;100.00;64190.91;4786581;30;19990;-56
2023/03/13 08:28:35;;;;;;;;;;;;;;;-144.70;100.00;64190.91;4772786;30;19926;-54
2023/03/13 08:31:11;;;;;;;;;;;;;;;-144.70;100.00;64190.91;4769143;30;19918;-55
2023/03/13 08:33:38;;;;;;;;;;;;;;;-144.70;100.00;64190.91;4772049;30;20012;-54
2023/03/13 08:36:14;;;;;;;;;;;;;;;-144.70;100.00;64190.91;4771660;30;19917;-55
2023/03/13 08:38:46;;;;;;;;;;;;;;;-144.70;100.00;64190.91;4771988;30;20012;-54
2023/03/13 08:41:16;;;;;;;;;;;;;;;-144.70;100.00;64190.91;4771803;30;19917;-55
2023/03/13 08:43:42;;;;;;;;;;;;;;;-144.70;100.00;64190.91;4771827;30;19921;-55
2023/03/13 08:46:08;;;;;;;;;;;;;;;-144.70;100.00;64190.91;4771336;30;19921;-56
2023/03/13 08:48:34;;;;;;;;;;;;;;;-144.70;100.00;64190.91;4771971;30;20445;-54
2023/03/13 08:51:04;;;;;;;;;;;;;;;-144.70;100.00;64190.91;4771745;30;19918;-54
2023/03/13 08:53:30;;;;;;;;;;;;;;;-144.70;100.00;64190.91;4771855;30;19984;-54
2023/03/13 08:55:57;;;;;;;;;;;;;;;-144.70;100.00;64190.91;4771390;30;19967;-55
2023/03/13 08:58:23;;;;;;;;;;;;;;;-144.70;100.00;64190.91;4771228;30;20401;-54
2023/03/13 09:00:48;;;;;;;;;;;;;;;-144.70;100.00;64190.91;4758923;30;19950;-54
2023/03/13 09:03:16;;;;;;;;;;;;;;;-144.70;100.00;64190.91;4768581;30;20293;-54
2023/03/13 09:05:42;;;;;;;;;;;;;;;-144.70;100.00;64190.91;4771046;30;20017;-54
2023/03/13 09:08:08;;;;;;;;;;;;;;;-144.70;100.00;64190.91;4753369;30;20079;-54
2023/03/13 09:10:34;;;;;;;;;;;;;;;-144.70;100.00;64190.91;4752125;30;20417;-55
2023/03/13 09:13:01;;;;;;;;;;;;;;;-144.70;100.00;64190.91;4753260;30;19918;-55
2023/03/13 09:15:27;;;;;;;;;;;;;;;-144.70;100.00;64190.91;4753208;30;19922;-54
2023/03/13 09:17:53;;;;;;;;;;;;;;;-144.70;100.00;64190.91;4753017;30;19918;-54
2023/03/13 09:20:18;;;;;;;;;;;;;;;-144.70;100.00;64190.91;4768406;30;20006;-55
2023/03/13 09:22:45;;;;;;;;;;;;;;;-144.70;100.00;64190.91;4770962;30;20302;-54
2023/03/13 09:25:11;;;;;;;;;;;;;;;-144.70;100.00;64190.91;4772561;30;19922;-55
2023/03/13 09:27:37;;;;;;;;;;;;;;;-144.70;100.00;64190.91;4771018;30;19928;-55
2023/03/13 09:30:03;;;;;;;;;;;;;;;-144.70;100.00;64190.91;4770702;30;19922;-54
2023/03/13 09:32:29;;;;;;;;;;;;;;;-144.70;100.00;64190.91;4773547;30;20450;-54
2023/03/13 09:34:55;;;;;;;;;;;;;;;-144.70;100.00;64190.91;4770712;30;19975;-53
2023/03/13 09:37:21;;;;;;;;;;;;;;;-144.70;100.00;64190.91;4770477;30;19917;-54
2023/03/13 09:39:48;;;;;;;;;;;;;;;-144.70;100.00;64190.91;4770808;30;19918;-55
2023/03/13 09:42:21;;;;;;;;;;;;;;;-144.70;100.00;64190.91;4770430;30;19960;-55
2023/03/13 09:44:49;;;;;;;;;;;;;;;-144.70;100.00;64190.91;4770168;30;19949;-55
2023/03/13 09:47:21;;;;;;;;;;;;;;;-144.70;100.00;64190.91;4772602;30;19922;-56
2023/03/13 09:49:53;;;;;;;;;;;;;;;-144.70;100.00;64190.91;4770479;30;20012;-54
2023/03/13 09:52:24;;;;;;;;;;;;;;;-144.70;100.00;64190.91;4770243;30;19922;-55
2023/03/13 09:54:57;;;;;;;;;;;;;;;-144.70;100.00;64190.91;4764427;30;19957;-54
2023/03/13 09:57:32;;;;;;;;;;;;;;;-144.70;100.00;64190.91;4770448;30;20380;-55
2023/03/13 10:00:18;;;;;;;;;;;;;;;-144.70;100.00;64190.91;4770255;30;19918;-56
2023/03/13 10:02:56;;;;;;;;;;;;;;;-144.70;100.00;64190.91;4754313;30;20012;-55
2023/03/13 10:05:27;;;;;;;;;;;;;;;-144.70;100.00;64190.91;4770089;30;19924;-54
2023/03/13 10:07:58;;;;;;;;;;;;;;;-144.70;100.00;64190.91;4770232;30;19925;-54
2023/03/13 10:10:37;;;;;;;;;;;;;;;-144.70;100.00;64190.91;4770117;30;19924;-55
2023/03/13 10:13:12;;;;;;;;;;;;;;;-144.70;100.00;64190.91;4770110;30;20432;-55
2023/03/13 10:15:58;;;;;;;;;;;;;;;-144.70;100.00;64190.91;4769947;30;20309;-55
2023/03/13 10:18:24;;;;;;;;;;;;;;;-144.70;100.00;64190.91;4770027;30;20377;-55
2023/03/13 10:20:52;;;;;;;;;;;;;;;-144.70;100.00;64190.91;4770041;30;20280;-55
2023/03/13 10:23:26;;;;;;;;;;;;;;;-144.70;100.00;64190.91;4769910;30;19918;-55
2023/03/13 10:25:52;;;;;;;;;;;;;;;-144.70;100.00;64190.91;4776516;30;19923;-54
2023/03/13 10:28:19;;;;;;;;;;;;;;;-144.70;100.00;64190.91;4772086;30;19918;-54
2023/03/13 10:30:51;;;;;;;;;;;;;;;-144.70;100.00;64190.91;4770169;30;19994;-55
2023/03/13 10:33:23;;;;;;;;;;;;;;;-144.70;100.00;64190.91;4769750;30;19965;-53
2023/03/13 10:35:59;;;;;;;;;;;;;;;-144.70;100.00;64190.91;4769591;30;19917;-54
2023/03/13 10:38:25;;;;;;;;;;;;;;;-144.70;100.00;64190.91;4769724;30;19921;-55
2023/03/13 10:40:58;;;;;;;;;;;;;;;-144.70;100.00;64190.91;4767773;30;19974;-55
2023/03/13 10:43:25;;;;;;;;;;;;;;;-144.70;100.00;64190.91;4782014;30;19921;-55
2023/03/13 10:45:51;;;;;;;;;;;;;;;-144.70;100.00;64190.91;4769265;30;19921;-55
2023/03/13 10:48:22;;;;;;;;;;;;;;;-144.70;100.00;64190.91;4769786;30;20012;-56
2023/03/13 10:50:49;;;;;;;;;;;;;;;-144.70;100.00;64190.91;4769623;30;19971;-55
2023/03/13 10:53:23;;;;;;;;;;;;;;;-144.70;100.00;64190.91;4769437;30;19918;-56
2023/03/13 10:55:51;;;;;;;;;;;;;;;-144.70;100.00;64190.91;4769384;30;19918;-55
2023/03/13 10:58:29;;;;;;;;;;;;;;;-144.70;100.00;64190.91;4769450;30;19971;-54
2023/03/13 11:01:09;;;;;;;;;;;;;;;-144.70;100.00;64190.91;4769174;30;19967;-56
2023/03/13 11:03:34;;;;;;;;;;;;;;;-144.70;100.00;64190.91;4769457;30;19918;-55
2023/03/13 11:06:01;;;;;;;;;;;;;;;-144.70;100.00;64190.91;4769212;30;20012;-55
2023/03/13 11:08:33;;;;;;;;;;;;;;;-144.70;100.00;64190.91;4769507;30;20015;-55
2023/03/13 11:10:58;;;;;;;;;;;;;;;-144.70;100.00;64190.91;4769572;30;20021;-55
2023/03/13 11:13:27;;;;;;;;;;;;;;;-144.70;100.00;64190.91;4769350;30;20000;-54
2023/03/13 11:15:56;;;;;;;;;;;;;;;-144.70;100.00;64190.91;4769004;30;19917;-55
2023/03/13 11:18:22;;;;;;;;;;;;;;;-144.70;100.00;64190.91;4769258;30;20422;-56
2023/03/13 11:20:49;;;;;;;;;;;;;;;-144.70;100.00;64190.91;4769307;30;20381;-55
2023/03/13 11:23:20;;;;;;;;;;;;;;;-144.70;100.00;64190.91;4769115;30;20368;-55
2023/03/13 11:26:04;;;;;;;;;;;;;;;-144.70;100.00;64190.91;4768988;30;19986;-56
2023/03/13 11:28:52;;;;;;;;;;;;;;;-144.70;100.00;64190.91;4769252;30;20346;-55
2023/03/13 11:31:44;;;;;;;;;;;;;;;-144.70;100.00;64190.91;4769207;30;19926;-55
2023/03/13 11:34:32;;;;;;;;;;;;;;;-144.70;100.00;64190.91;4749703;30;19926;-54
2023/03/13 11:36:57;;;;;;;;;;;;;;;-144.70;100.00;64190.91;4751503;30;19918;-53
2023/03/13 11:39:41;;;;;;;;;;;;;;;-144.70;100.00;64190.91;4751427;30;19924;-55
2023/03/13 11:42:26;;;;;;;;;;;;;;;-144.70;100.00;64190.91;4751305;30;19925;-54
2023/03/13 11:45:14;;;;;;;;;;;;;;;-144.70;100.00;64190.91;4755418;30;20400;-54
2023/03/13 11:47:57;;;;;;;;;;;;;;;-144.70;100.00;64190.91;4754803;30;19964;-56
2023/03/13 11:50:22;;;;;;;;;;;;;;;-144.70;100.00;64190.91;4771596;30;20296;-55
2023/03/13 11:53:08;;;;;;;;;;;;;;;-144.70;100.00;64190.91;4768938;30;19918;-54
2023/03/13 11:55:44;;;;;;;;;;;;;;;-144.70;100.00;64190.91;4768727;30;19968;-55
2023/03/13 11:58:23;;;;;;;;;;;;;;;-144.70;100.00;64190.91;4768871;30;19918;-55
2023/03/13 12:01:01;;;;;;;;;;;;;;;-144.70;100.00;64190.91;4768857;30;19957;-55
2023/03/13 12:03:46;;;;;;;;;;;;;;;-144.70;100.00;64190.91;4768901;30;19922;-55
2023/03/13 12:06:28;;;;;;;;;;;;;;;-144.70;100.00;64190.91;4769107;30;19934;-55
2023/03/13 12:09:14;;;;;;;;;;;;;;;-144.70;100.00;64190.91;4772059;30;19922;-55
2023/03/13 12:12:06;;;;;;;;;;;;;;;-144.70;100.00;64190.91;4771968;30;19925;-55
2023/03/13 12:14:38;;;;;;;;;;;;;;;-144.70;100.00;64190.91;4751153;30;20417;-53
2023/03/13 12:17:21;;;;;;;;;;;;;;;-144.70;100.00;64190.91;4772204;30;19940;-55
2023/03/13 12:19:50;;;;;;;;;;;;;;;-144.70;100.00;64190.91;4772097;30;20400;-56
2023/03/13 12:22:22;;;;;;;;;;;;;;;-144.70;100.00;64190.91;4772339;30;19929;-55
2023/03/13 12:24:59;;;;;;;;;;;;;;;-144.70;100.00;64190.91;4771893;30;19922;-55